Sachse, TX (75048)

9:57 PM CST on February 11, 2016 (GMT -0600)
Heritage Park | | Change Station
CLOSE
Current Station
Personal Weather Station
Location: Sachse, TX
Elevation: 502 ft
Nearby Weather Stations
Active Advisory: Flood Warning Active Notice: Record Report

Elev 502 ft 32.96 °N, 96.57 °W | Updated 9 seconds ago

Clear
Clear
57.8 °F
Feels Like 57.8 °F
N
1.0
Wind Variable Wind from NNE
Gusts 6.0 mph

Today
High -- | Low -- °F
--% Chance of Precip.
Yesterday
High -- | Low -- °F
Precip. -- in
Pressure 30.11 in
Visibility 10.0 miles
Clouds Clear
Dew Point 40 °F
Humidity 51%
Rainfall 0.00 in
Snow Depth Not available.
7:13 AM 6:07 PM
Waxing Crescent, 17% visible
METAR KF46 120335Z AUTO 00000KT 10SM CLR 14/04 A3011 RMK AO2 T01410036
Pressure 30.11 in
Visibility 10.0 miles
Clouds Clear
Dew Point 40 °F
Humidity 51%
Rainfall 0.00 in
Snow Depth Not available.
7:13 AM 6:07 PM
Waxing Crescent, 17% visible
METAR KF46 120335Z AUTO 00000KT 10SM CLR 14/04 A3011 RMK AO2 T01410036

10-Day Weather Forecast

Almanac

Astronomy

Feb. 11, 2016 Rise Set
Actual Time
Civil Twilight
Nautical Twilight
Astronomical Twilight
Moon
Length of Visible Light
Length of Day
Tomorrow will be .
, % of the Moon is Illuminated

Today's Extremes

State Highs State Lows

Community

WunderPhotos

Upload Photos

1,892,254 photos uploaded!

WunderBlog® & News

Nearby

Air Quality

  Air Quality AQ Index Pollutant
Not available.

Snow Depth

Station Depth Elevation

Earthquake Activity

City Distance Mag. Time & Date
Minimum magnitude displayed is 2.5.

Coastal Water Temperatures

Place Temperature

Stations

Nearby Weather Stations

Station Location Temp. Windchill Dew Point Humidity Wind Precip. Elev Updated Type
                   

Watches & Warnings

Flood Warning
Issued: 6:35 PM CST Feb. 11, 2016 – National Weather Service

The Flood Warning continues for
the Elm Fork Trinity River near Carrollton.
* At 0615 PM Thursday the stage was 8.33 feet.
* Flood stage is 8 feet.
* Minor flooding is occurring and minor flooding is forecast.
* Forecast... the river will continue near 8.4 feet for the next few
days.


Lat... Lon 3300 9700 3287 9699 3287 9687 3300 9688